Bradford, United Kingdom
Current Conditions -  °F | °C
As of 12:20 PM on Thursday 30 Oct 2014 (Local Time) from EGNM Reporting Station
Scattered Clouds Scattered Clouds  
Wind Chill: 57°   Ceiling: Unl
Heat Index: 57°   Visibility: 4mi
Dew Point: 57°   Wind: 6mph
Humidity: 100%   Direction: 210°SSW
Pressure: 29.97"   Gusts: NA
Location:  53.8°N, 1.75°W
Report Text: EGNM 301220Z 21005KT 180V250 6000 FEW010 SCT030 14/14 Q1015
Loading
Personal Weather Stations






























Interactive Weather Map
Tropical Storm Tracking
New forecast layout! Learn more

10-Day Weather Forecast

Advertisements
Track Severe Weather on mobile